Time;durP1;ratioP1;P1;durP2;ratioP2;P2;SDS_P1;SDS_P2;PMS_P1;PMS_P2;Temp;Humidity;BMP_temperature;BMP_pressure;BME280_temperature;BME280_humidity;BME280_pressure;Samples;Min_cycle;Max_cycle;Signal;HPM_P1;HPM_P2
2023/03/30 00:00:19;;;;;;;18.42;12.13;;;;;;;20.80;66.40;98592.91;4944784;28;20094;-65
2023/03/30 00:02:52;;;;;;;21.63;12.45;;;;;;;20.73;66.80;98591.53;4939482;29;20356;-66
2023/03/30 00:05:22;;;;;;;24.50;12.10;;;;;;;20.67;66.66;98604.13;4943966;29;20746;-67
2023/03/30 00:07:53;;;;;;;28.13;13.38;;;;;;;20.67;66.96;98614.13;4944657;29;20154;-65
2023/03/30 00:10:23;;;;;;;24.58;14.93;;;;;;;20.73;67.19;98623.81;4942883;29;20046;-66
2023/03/30 00:12:52;;;;;;;27.48;15.00;;;;;;;20.77;67.51;98636.50;4929585;29;20047;-66
2023/03/30 00:15:23;;;;;;;27.42;14.63;;;;;;;20.85;66.85;98638.72;4942903;29;20411;-66
2023/03/30 00:17:53;;;;;;;30.30;17.00;;;;;;;20.81;66.49;98647.56;4946399;29;20039;-66
2023/03/30 00:20:23;;;;;;;22.85;14.82;;;;;;;20.73;66.06;98648.88;4941863;29;20362;-66
2023/03/30 00:22:54;;;;;;;27.90;16.15;;;;;;;20.77;67.34;98641.06;4925564;29;20735;-66
2023/03/30 00:25:24;;;;;;;29.73;15.45;;;;;;;20.82;67.03;98627.66;4930251;29;20054;-66
2023/03/30 00:27:54;;;;;;;22.98;13.73;;;;;;;21.21;66.07;98633.53;4927340;29;20580;-67
2023/03/30 00:30:24;;;;;;;25.38;14.52;;;;;;;20.90;66.01;98629.84;4938688;28;20126;-66
2023/03/30 00:32:55;;;;;;;21.77;11.38;;;;;;;20.72;65.13;98639.16;4942940;29;20053;-64
2023/03/30 00:35:29;;;;;;;19.67;11.05;;;;;;;20.63;64.72;98643.41;4936536;29;20439;-68
2023/03/30 00:38:02;;;;;;;;;;;;;;;20.56;65.43;98640.13;4909823;29;20488;-67
2023/03/30 00:40:33;;;;;;;16.90;10.13;;;;;;;20.55;65.75;98644.69;4936197;29;19977;-65
2023/03/30 00:43:10;;;;;;;16.55;10.98;;;;;;;20.59;65.88;98643.13;4940092;29;20058;-65
2023/03/30 00:45:40;;;;;;;17.88;11.50;;;;;;;20.79;65.91;98638.94;4947824;29;20071;-65
2023/03/30 00:48:29;;;;;;;19.42;11.90;;;;;;;21.11;65.84;98655.03;4927777;29;20055;-65
2023/03/30 00:51:08;;;;;;;33.78;19.83;;;;;;;20.76;66.76;98660.97;4918859;28;20535;-66
2023/03/30 00:53:54;;;;;;;35.92;20.45;;;;;;;20.66;68.41;98655.56;4929137;29;20063;-65
2023/03/30 00:56:29;;;;;;;24.80;16.00;;;;;;;20.94;67.91;98657.88;4932704;28;20047;-65
2023/03/30 00:59:01;;;;;;;28.85;19.77;;;;;;;21.20;66.89;98662.34;4949051;28;20055;-65
2023/03/30 01:01:37;;;;;;;38.35;26.02;;;;;;;20.79;67.49;98676.63;4954135;28;20058;-66
2023/03/30 01:04:09;;;;;;;38.17;25.40;;;;;;;20.46;68.74;98700.06;4930265;29;20428;-66
2023/03/30 01:06:42;;;;;;;46.83;32.50;;;;;;;20.49;68.82;98713.00;4952500;28;20043;-66
2023/03/30 01:09:16;;;;;;;54.22;34.28;;;;;;;20.52;69.23;98707.13;4930902;29;20078;-65
2023/03/30 01:11:46;;;;;;;43.92;30.08;;;;;;;20.77;68.96;98706.50;4934413;29;20053;-66
2023/03/30 01:14:17;;;;;;;50.13;35.65;;;;;;;20.62;69.71;98706.41;4949949;28;20047;-65
2023/03/30 01:17:00;;;;;;;65.30;42.63;;;;;;;20.50;69.74;98711.94;4930067;29;20062;-65
2023/03/30 01:19:42;;;;;;;76.57;45.83;;;;;;;20.41;70.11;98705.41;4932046;29;20051;-69
2023/03/30 01:22:21;;;;;;;67.72;40.92;;;;;;;20.52;71.02;98709.81;4932549;29;20468;-66
2023/03/30 01:25:48;;;;;;;66.47;44.97;;;;;;;20.32;70.97;98715.00;4937975;29;20117;-67
2023/03/30 01:28:43;;;;;;;73.80;46.15;;;;;;;20.19;71.75;98716.19;4922434;29;20661;-67
2023/03/30 01:31:16;;;;;;;55.92;37.00;;;;;;;20.31;72.00;98713.38;4953074;28;20162;-64
2023/03/30 01:34:04;;;;;;;63.15;44.15;;;;;;;20.27;72.36;98711.44;4954434;28;20047;-67
2023/03/30 01:36:44;;;;;;;60.25;39.30;;;;;;;20.23;72.03;98689.59;4951085;29;20467;-68
2023/03/30 01:39:43;;;;;;;61.13;38.20;;;;;;;20.21;72.64;98697.13;4952993;29;20043;-67
2023/03/30 01:42:27;;;;;;;51.33;36.38;;;;;;;20.22;72.90;98697.94;4950924;29;20061;-65
2023/03/30 01:45:00;;;;;;;;;;;;;;;20.08;73.68;98703.72;4946836;29;20130;-64
2023/03/30 01:47:40;;;;;;;61.80;36.80;;;;;;;20.00;73.79;98714.91;4952112;29;20492;-66
2023/03/30 01:50:19;;;;;;;47.60;34.33;;;;;;;20.04;74.13;98712.53;4933564;29;20043;-66
2023/03/30 01:52:55;;;;;;;46.70;32.45;;;;;;;20.17;73.75;98706.75;4931918;29;20051;-67
2023/03/30 01:55:49;;;;;;;45.72;32.97;;;;;;;20.15;73.44;98715.06;4947610;29;20054;-66
2023/03/30 01:58:32;;;;;;;49.60;31.65;;;;;;;20.05;73.45;98724.91;4941790;28;20077;-65
2023/03/30 02:01:05;;;;;;;44.10;31.87;;;;;;;20.12;73.57;98744.34;4936707;28;20057;-66
2023/03/30 02:03:38;;;;;;;;;;;;;;;20.12;73.77;98757.81;4934312;29;20475;-67
2023/03/30 02:06:25;;;;;;;47.17;33.03;;;;;;;19.98;73.80;98770.81;4938522;29;19926;-67
2023/03/30 02:08:59;;;;;;;45.40;31.83;;;;;;;20.02;73.75;98768.44;4933699;29;20359;-67
2023/03/30 02:11:31;;;;;;;46.67;33.80;;;;;;;20.16;74.17;98770.50;4924000;29;20043;-66
2023/03/30 02:14:04;;;;;;;49.88;32.88;;;;;;;20.21;73.75;98768.91;4940168;28;20137;-65
2023/03/30 02:16:47;;;;;;;45.47;32.40;;;;;;;20.30;74.87;98753.97;4938750;28;20114;-67
2023/03/30 02:19:18;;;;;;;48.33;31.83;;;;;;;20.75;72.50;98754.41;4931495;29;20049;-66
2023/03/30 02:21:49;;;;;;;40.25;32.33;;;;;;;20.64;72.72;98739.22;4925973;28;20319;-66
2023/03/30 02:24:25;;;;;;;45.40;32.60;;;;;;;20.46;73.69;98742.28;4962980;28;20055;-66
2023/03/30 02:26:55;;;;;;;46.72;32.90;;;;;;;20.28;73.15;98740.75;4929052;29;20046;-66
2023/03/30 02:29:26;;;;;;;46.95;30.67;;;;;;;20.33;73.15;98746.22;4939298;28;20162;-66
2023/03/30 02:31:58;;;;;;;47.17;29.85;;;;;;;20.38;72.30;98750.84;4932355;29;20080;-67
2023/03/30 02:34:50;;;;;;;47.28;31.17;;;;;;;20.45;71.40;98741.47;4963244;28;20061;-65
2023/03/30 02:37:46;;;;;;;44.53;31.02;;;;;;;20.67;71.88;98727.16;4943597;28;20039;-65
2023/03/30 02:40:55;;;;;;;47.88;31.17;;;;;;;20.90;70.79;98727.59;4944204;28;20130;-65
2023/03/30 02:43:44;;;;;;;49.92;32.63;;;;;;;21.13;69.51;98726.44;4935713;28;20054;-64
2023/03/30 02:46:39;;;;;;;48.28;33.67;;;;;;;21.12;69.32;98730.16;4929716;28;20065;-65
2023/03/30 02:49:37;;;;;;;45.08;31.40;;;;;;;21.36;69.15;98725.22;4947026;28;20054;-65
2023/03/30 02:52:32;;;;;;;42.33;28.63;;;;;;;21.29;68.02;98724.63;4925862;29;20542;-67
2023/03/30 02:55:21;;;;;;;42.03;26.13;;;;;;;21.35;67.49;98715.50;4922060;29;20086;-66
2023/03/30 02:58:25;;;;;;;33.17;24.67;;;;;;;21.48;67.63;98715.03;4920854;29;20051;-66
2023/03/30 03:01:22;;;;;;;35.90;25.63;;;;;;;21.79;66.55;98714.09;4927847;29;20043;-66
2023/03/30 03:04:11;;;;;;;32.55;23.58;;;;;;;21.43;68.12;98707.72;4889129;29;20052;-66
2023/03/30 03:07:14;;;;;;;35.35;25.60;;;;;;;21.43;67.36;98707.72;4917699;28;20498;-66
2023/03/30 03:09:51;;;;;;;32.13;24.08;;;;;;;21.58;67.42;98698.09;4950496;28;20047;-67
2023/03/30 03:12:23;;;;;;;32.90;22.58;;;;;;;22.04;66.85;98682.91;4946777;29;20499;-66
2023/03/30 03:14:57;;;;;;;34.40;23.90;;;;;;;22.08;65.46;98679.41;4918093;29;20047;-64
2023/03/30 03:17:33;;;;;;;39.70;25.63;;;;;;;21.56;65.83;98694.84;4907276;29;20050;-64
2023/03/30 03:20:10;;;;;;;29.83;22.05;;;;;;;22.17;65.96;98688.56;4945458;28;20134;-64
2023/03/30 03:22:43;;;;;;;30.80;22.75;;;;;;;22.17;65.02;98691.28;4913229;29;20051;-65
2023/03/30 03:25:14;;;;;;;27.83;21.25;;;;;;;22.47;62.88;98689.69;4927183;29;20043;-65
2023/03/30 03:27:56;;;;;;;31.83;20.67;;;;;;;22.49;62.19;98695.63;4915857;29;20542;-64
2023/03/30 03:30:30;;;;;;;24.70;19.70;;;;;;;22.91;61.68;98687.25;4938401;28;20054;-65
2023/03/30 03:33:10;;;;;;;32.17;19.23;;;;;;;23.47;60.16;98691.47;4959863;28;20617;-64
2023/03/30 03:35:44;;;;;;;29.65;18.88;;;;;;;23.66;57.95;98683.56;4925768;29;20047;-63
2023/03/30 03:38:15;;;;;;;29.58;18.58;;;;;;;23.70;57.87;98690.03;4939067;29;20051;-64
2023/03/30 03:40:54;;;;;;;33.25;17.58;;;;;;;23.95;57.82;98689.88;4951971;28;20484;-64
2023/03/30 03:43:27;;;;;;;34.22;17.63;;;;;;;23.93;56.40;98681.25;4937483;29;20718;-64
2023/03/30 03:45:57;;;;;;;27.65;17.60;;;;;;;23.65;58.47;98690.84;4928771;29;20043;-63
2023/03/30 03:48:28;;;;;;;27.40;18.05;;;;;;;23.89;58.61;98692.91;4937604;29;20050;-64
2023/03/30 03:50:58;;;;;;;28.83;18.45;;;;;;;23.62;58.32;98696.81;4927224;29;20063;-65
2023/03/30 03:53:35;;;;;;;24.50;16.67;;;;;;;23.42;57.68;98709.56;4926554;29;20066;-64
2023/03/30 03:56:10;;;;;;;25.33;16.52;;;;;;;23.60;58.82;98706.28;4931911;29;20043;-65
2023/03/30 03:58:41;;;;;;;32.25;17.67;;;;;;;23.63;58.09;98708.44;4923716;28;20105;-64
2023/03/30 04:01:13;;;;;;;28.65;16.88;;;;;;;23.60;58.84;98701.69;4928556;29;20075;-64
2023/03/30 04:03:44;;;;;;;29.65;17.35;;;;;;;23.70;58.05;98696.25;4911394;29;20107;-64
2023/03/30 04:06:17;;;;;;;22.52;16.05;;;;;;;23.65;58.50;98695.44;4923943;29;20071;-63
2023/03/30 04:08:48;;;;;;;21.88;15.88;;;;;;;23.92;57.49;98703.16;4936311;29;20050;-64
2023/03/30 04:11:39;;;;;;;26.40;15.60;;;;;;;23.98;57.57;98705.56;4945316;29;20061;-63
2023/03/30 04:14:27;;;;;;;25.42;15.80;;;;;;;23.88;56.88;98696.69;4932531;29;20051;-64
2023/03/30 04:17:17;;;;;;;22.08;15.88;;;;;;;23.80;58.36;98698.09;4926825;29;20050;-64
2023/03/30 04:20:18;;;;;;;24.15;19.23;;;;;;;23.90;58.07;98695.31;4928995;29;20067;-64
2023/03/30 04:23:20;;;;;;;35.53;19.40;;;;;;;23.96;57.98;98699.63;4891592;29;20057;-64
2023/03/30 04:26:12;;;;;;;24.80;20.42;;;;;;;24.26;57.96;98689.72;4922531;29;20723;-65
2023/03/30 04:28:52;;;;;;;24.45;18.70;;;;;;;24.14;57.99;98688.16;4937507;28;20043;-64
2023/03/30 04:31:45;;;;;;;23.42;18.02;;;;;;;24.50;58.09;98687.91;4939191;28;20044;-65
2023/03/30 04:34:20;;;;;;;24.15;17.08;;;;;;;24.69;56.38;98699.69;4928866;29;20099;-64
2023/03/30 04:37:17;;;;;;;21.30;15.75;;;;;;;24.89;55.62;98685.16;4928062;29;20496;-64
2023/03/30 04:40:08;;;;;;;20.70;13.98;;;;;;;25.07;54.86;98697.19;4917035;29;20063;-65
2023/03/30 04:43:02;;;;;;;24.15;12.65;;;;;;;25.27;53.25;98691.56;4916444;29;20047;-64
2023/03/30 04:46:01;;;;;;;25.77;14.93;;;;;;;25.56;53.61;98695.03;4939257;28;20121;-58
2023/03/30 04:48:49;;;;;;;20.75;10.85;;;;;;;25.81;51.14;98693.88;4943906;28;20066;-64
2023/03/30 04:51:39;;;;;;;14.50;8.77;;;;;;;26.22;49.66;98688.72;4934396;28;20054;-61
2023/03/30 04:54:13;;;;;;;12.60;7.95;;;;;;;26.25;49.31;98682.69;4928327;29;20114;-62
2023/03/30 04:57:04;;;;;;;14.80;8.85;;;;;;;26.38;48.20;98681.94;4908116;28;20078;-63
2023/03/30 04:59:44;;;;;;;16.17;9.00;;;;;;;26.93;46.49;98687.59;4946495;29;20044;-62
2023/03/30 05:02:33;;;;;;;13.27;8.40;;;;;;;26.94;48.25;98695.47;4949188;28;20036;-62
2023/03/30 05:05:29;;;;;;;17.25;8.93;;;;;;;27.12;48.07;98688.34;4931725;29;20051;-63
2023/03/30 05:08:28;;;;;;;11.85;8.43;;;;;;;27.00;46.04;98686.09;4932201;29;20047;-62
2023/03/30 05:11:12;;;;;;;15.77;8.82;;;;;;;27.14;48.17;98688.81;4946853;29;20134;-62
2023/03/30 05:13:56;;;;;;;17.88;9.38;;;;;;;27.36;48.68;98686.22;4930573;29;20055;-62
2023/03/30 05:16:57;;;;;;;11.52;8.07;;;;;;;27.56;45.71;98682.31;4942575;29;20542;-62
2023/03/30 05:19:46;;;;;;;14.57;7.35;;;;;;;27.85;47.28;98673.81;4932978;29;20051;-62
2023/03/30 05:22:30;;;;;;;14.73;8.10;;;;;;;27.86;46.04;98680.88;4931568;29;20051;-63
2023/03/30 05:25:47;;;;;;;16.42;6.43;;;;;;;28.09;43.18;98674.38;4897866;29;20135;-63
2023/03/30 05:28:38;;;;;;;9.73;5.47;;;;;;;28.11;41.62;98672.16;4889203;29;20627;-64
2023/03/30 05:31:21;;;;;;;12.70;5.47;;;;;;;27.94;41.53;98666.53;4940007;29;20059;-63
2023/03/30 05:34:18;;;;;;;10.13;5.57;;;;;;;27.81;42.44;98667.38;4929356;29;20047;-65
2023/03/30 05:37:14;;;;;;;13.70;7.13;;;;;;;28.48;44.81;98660.09;4929583;28;20044;-64
2023/03/30 05:39:56;;;;;;;8.13;5.05;;;;;;;28.70;40.66;98668.28;4918423;29;20047;-65
2023/03/30 05:42:44;;;;;;;9.77;6.40;;;;;;;28.37;42.31;98659.53;4928965;28;20054;-65
2023/03/30 05:45:28;;;;;;;9.82;4.90;;;;;;;28.02;41.94;98660.34;4950456;28;20471;-65
2023/03/30 05:48:18;;;;;;;13.45;6.07;;;;;;;27.81;41.29;98665.44;4906768;29;20491;-66
2023/03/30 05:51:05;;;;;;;9.00;5.35;;;;;;;27.67;42.28;98662.75;4928526;28;20044;-65
2023/03/30 05:53:51;;;;;;;14.68;5.50;;;;;;;27.70;42.53;98645.78;4929096;29;20138;-65
2023/03/30 05:56:45;;;;;;;9.02;6.70;;;;;;;28.11;42.83;98639.47;4925479;29;20498;-65
2023/03/30 05:59:24;;;;;;;13.65;6.13;;;;;;;28.12;42.65;98641.09;4932352;29;20070;-65
2023/03/30 06:02:24;;;;;;;9.93;5.85;;;;;;;27.95;44.19;98638.19;4926012;29;20055;-66
2023/03/30 06:05:02;;;;;;;11.45;5.07;;;;;;;28.07;41.88;98631.09;4930369;29;20407;-66
2023/03/30 06:07:33;;;;;;;9.30;4.75;;;;;;;27.75;42.20;98630.50;4911218;29;20248;-65
2023/03/30 06:10:04;;;;;;;7.57;5.60;;;;;;;28.04;41.60;98630.91;4931436;29;20047;-65
2023/03/30 06:12:35;;;;;;;8.85;3.75;;;;;;;28.08;41.92;98624.53;4928380;29;20656;-65
2023/03/30 06:15:08;;;;;;;14.45;5.15;;;;;;;27.88;41.58;98629.66;4947075;28;20079;-64
2023/03/30 06:17:46;;;;;;;8.75;4.30;;;;;;;27.65;39.70;98621.44;4931094;29;20146;-65
2023/03/30 06:20:20;;;;;;;10.38;3.35;;;;;;;27.95;39.42;98614.50;4928870;29;20052;-65
2023/03/30 06:22:51;;;;;;;10.02;3.80;;;;;;;27.94;39.23;98606.63;4912621;29;20043;-65
2023/03/30 06:25:24;;;;;;;9.73;4.10;;;;;;;28.24;40.29;98594.22;4911072;29;20059;-65
2023/03/30 06:27:56;;;;;;;7.85;4.03;;;;;;;28.47;38.65;98598.53;4931251;29;20094;-64
2023/03/30 06:30:28;;;;;;;9.70;4.50;;;;;;;28.61;40.06;98593.81;4912729;29;20048;-64
2023/03/30 06:33:02;;;;;;;11.30;4.88;;;;;;;28.65;40.28;98602.97;4942297;29;20079;-63
2023/03/30 06:35:51;;;;;;;10.35;5.40;;;;;;;28.67;40.65;98584.41;4930223;29;20133;-65
2023/03/30 06:38:25;;;;;;;7.38;4.65;;;;;;;29.01;40.44;98589.22;4928368;29;20043;-65
2023/03/30 06:40:57;;;;;;;13.00;5.07;;;;;;;29.22;39.81;98578.50;4945567;28;20054;-64
2023/03/30 06:43:29;;;;;;;8.07;4.80;;;;;;;29.15;40.44;98578.19;4926556;29;20047;-66
2023/03/30 06:46:07;;;;;;;11.60;5.05;;;;;;;29.21;38.19;98568.75;4938388;29;20491;-71
2023/03/30 06:48:42;;;;;;;9.20;5.75;;;;;;;29.05;41.10;98571.09;4929541;29;20203;-72
2023/03/30 06:51:41;;;;;;;6.13;4.93;;;;;;;28.88;38.55;98568.31;4943420;29;20088;-69
2023/03/30 06:54:12;;;;;;;13.27;6.60;;;;;;;28.72;39.75;98570.66;4913307;28;20070;-61
2023/03/30 06:56:51;;;;;;;11.50;4.72;;;;;;;28.66;38.98;98569.16;4926391;28;20098;-61
2023/03/30 06:59:23;;;;;;;10.48;5.70;;;;;;;28.10;39.70;98565.13;4928038;29;20067;-60
2023/03/30 07:02:17;;;;;;;8.32;5.70;;;;;;;28.77;40.14;98562.31;4934990;28;20051;-60
2023/03/30 07:04:59;;;;;;;12.38;5.95;;;;;;;28.45;39.57;98554.47;4943152;28;20051;-61
2023/03/30 07:07:52;;;;;;;10.52;6.57;;;;;;;28.89;40.72;98556.28;4939031;28;20760;-61
2023/03/30 07:10:23;;;;;;;11.00;6.88;;;;;;;28.56;41.54;98542.16;4930903;29;20055;-60
2023/03/30 07:12:56;;;;;;;12.88;6.15;;;;;;;28.16;40.30;98545.94;4930281;29;20162;-59
2023/03/30 07:15:26;;;;;;;10.20;5.03;;;;;;;28.52;40.95;98541.19;4928002;29;20046;-60
2023/03/30 07:17:57;;;;;;;11.35;7.75;;;;;;;28.93;41.59;98530.00;4938675;29;20051;-60
2023/03/30 07:20:27;;;;;;;9.77;6.40;;;;;;;28.77;40.11;98536.97;4928261;29;20122;-60
2023/03/30 07:23:20;;;;;;;15.77;6.88;;;;;;;28.95;39.65;98523.09;4928853;29;20149;-60
2023/03/30 07:25:52;;;;;;;12.20;7.55;;;;;;;29.29;40.78;98530.59;4929410;29;20459;-60
2023/03/30 07:28:33;;;;;;;11.15;7.82;;;;;;;28.89;40.11;98521.66;4926886;29;20047;-60
2023/03/30 07:31:09;;;;;;;9.73;7.53;;;;;;;29.15;40.48;98521.72;4928154;29;20564;-60
2023/03/30 07:33:42;;;;;;;13.85;8.05;;;;;;;29.19;40.36;98519.13;4928050;29;20039;-60
2023/03/30 07:36:16;;;;;;;14.10;8.05;;;;;;;28.76;41.10;98508.13;4940708;28;20365;-60
2023/03/30 07:38:47;;;;;;;10.70;7.22;;;;;;;29.07;41.45;98511.59;4928845;29;20058;-60
2023/03/30 07:41:18;;;;;;;16.30;9.35;;;;;;;29.13;41.71;98510.31;4942081;29;20134;-60
2023/03/30 07:43:53;;;;;;;12.55;8.63;;;;;;;29.30;43.40;98501.34;4945720;29;20122;-60
2023/03/30 07:46:23;;;;;;;13.57;8.95;;;;;;;28.91;42.42;98505.75;4929468;29;20047;-62
2023/03/30 07:48:55;;;;;;;12.82;8.63;;;;;;;29.25;42.93;98504.25;4928383;29;20047;-60
2023/03/30 07:51:28;;;;;;;10.18;7.88;;;;;;;29.24;40.16;98502.63;4908403;29;20055;-61
2023/03/30 07:54:06;;;;;;;10.50;6.80;;;;;;;29.33;40.42;98501.53;4909335;29;20047;-60
2023/03/30 07:56:56;;;;;;;10.30;7.28;;;;;;;29.42;40.90;98491.44;4933030;29;20063;-61
2023/03/30 07:59:27;;;;;;;13.07;7.03;;;;;;;29.37;38.64;98483.41;4929649;29;20043;-61
2023/03/30 08:02:13;;;;;;;11.10;7.03;;;;;;;29.10;40.24;98483.66;4944943;29;20051;-61
2023/03/30 08:04:51;;;;;;;8.55;5.55;;;;;;;29.01;37.01;98480.94;4928812;29;20444;-61
2023/03/30 08:07:33;;;;;;;11.63;5.40;;;;;;;29.16;37.90;98474.22;4924894;29;20051;-60
2023/03/30 08:10:12;;;;;;;9.13;5.72;;;;;;;29.05;38.16;98472.09;4929648;29;20154;-61
2023/03/30 08:12:42;;;;;;;12.18;5.07;;;;;;;29.01;35.87;98466.50;4931115;29;20047;-62
2023/03/30 08:15:13;;;;;;;7.13;5.45;;;;;;;28.97;37.46;98460.88;4930671;29;20716;-62
2023/03/30 08:17:43;;;;;;;9.45;5.82;;;;;;;29.06;38.14;98455.44;4950318;28;20047;-62
2023/03/30 08:20:13;;;;;;;10.85;6.40;;;;;;;29.13;38.19;98444.03;4961133;28;20051;-61
2023/03/30 08:22:44;;;;;;;12.75;6.00;;;;;;;28.91;38.76;98437.59;4931726;28;20070;-61
2023/03/30 08:25:14;;;;;;;13.98;5.55;;;;;;;29.06;38.24;98430.88;4929318;29;20043;-62
2023/03/30 08:27:45;;;;;;;13.02;6.15;;;;;;;28.92;38.20;98424.75;4946930;28;20055;-61
2023/03/30 08:30:16;;;;;;;9.73;6.10;;;;;;;29.12;38.25;98421.41;4949443;28;20045;-61
2023/03/30 08:32:47;;;;;;;9.77;5.30;;;;;;;28.90;36.98;98405.97;4951660;28;20058;-61
2023/03/30 08:35:17;;;;;;;10.55;5.57;;;;;;;28.96;37.69;98403.91;4932345;28;20040;-61
2023/03/30 08:37:48;;;;;;;16.35;5.72;;;;;;;29.08;38.34;98406.81;4933121;29;20114;-61
2023/03/30 08:40:18;;;;;;;9.40;5.65;;;;;;;28.98;38.27;98396.22;4928742;29;20421;-63
2023/03/30 08:43:17;;;;;;;15.43;5.30;;;;;;;28.98;37.35;98405.22;4917586;29;20051;-62
2023/03/30 08:45:49;;;;;;;6.93;4.72;;;;;;;28.76;36.39;98407.28;4936067;29;20066;-61
2023/03/30 08:48:26;;;;;;;9.75;5.55;;;;;;;28.86;40.14;98393.31;4933113;29;20055;-61
2023/03/30 08:51:14;;;;;;;9.82;5.70;;;;;;;28.74;38.52;98390.41;4948982;28;20047;-61
2023/03/30 08:53:44;;;;;;;9.63;5.57;;;;;;;28.76;37.90;98385.47;4929573;29;20420;-61
2023/03/30 08:56:27;;;;;;;8.10;5.30;;;;;;;28.69;37.37;98383.16;4928967;29;20062;-61
2023/03/30 08:59:01;;;;;;;9.48;4.40;;;;;;;28.71;36.12;98374.72;4899525;29;20217;-61
2023/03/30 09:01:45;;;;;;;6.35;3.60;;;;;;;28.67;36.29;98376.44;4926799;29;20156;-62
2023/03/30 09:04:37;;;;;;;11.00;4.82;;;;;;;28.55;36.05;98372.41;4929624;29;20086;-62
2023/03/30 09:07:46;;;;;;;7.20;3.90;;;;;;;28.76;38.17;98361.72;4916449;29;20053;-61
2023/03/30 09:10:18;;;;;;;9.23;4.88;;;;;;;28.73;36.85;98353.38;4885568;29;20040;-63
2023/03/30 09:12:57;;;;;;;7.73;4.57;;;;;;;28.80;37.06;98356.44;4908861;29;20059;-67
2023/03/30 09:15:45;;;;;;;13.05;5.28;;;;;;;28.89;38.49;98346.34;4912270;29;20059;-65
2023/03/30 09:18:28;;;;;;;9.40;5.22;;;;;;;28.90;36.91;98346.00;4908806;28;20047;-65
2023/03/30 09:21:02;;;;;;;11.57;6.00;;;;;;;28.74;36.35;98341.34;4927772;29;20054;-65
2023/03/30 09:23:34;;;;;;;8.98;5.00;;;;;;;28.66;36.23;98328.50;4941756;28;20054;-65
2023/03/30 09:26:33;;;;;;;11.43;5.00;;;;;;;28.57;36.52;98323.84;4943078;28;20050;-66
2023/03/30 09:29:27;;;;;;;9.68;4.50;;;;;;;28.66;36.64;98323.84;4929441;29;20573;-66
2023/03/30 09:32:21;;;;;;;12.82;6.30;;;;;;;28.73;40.04;98316.00;4913837;29;20142;-64
2023/03/30 09:35:03;;;;;;;9.30;6.85;;;;;;;28.77;39.88;98318.88;4939244;28;20118;-65
2023/03/30 09:37:35;;;;;;;9.82;7.22;;;;;;;28.55;40.53;98309.72;4926223;29;20055;-65
2023/03/30 09:40:43;;;;;;;14.23;6.63;;;;;;;28.47;39.92;98309.72;4928300;28;20062;-65
2023/03/30 09:43:15;;;;;;;15.40;6.82;;;;;;;28.32;40.04;98313.72;4944238;28;20051;-64
2023/03/30 09:45:46;;;;;;;10.27;6.63;;;;;;;28.26;39.18;98304.06;4924996;29;20118;-66
2023/03/30 09:48:17;;;;;;;11.05;6.60;;;;;;;28.20;39.58;98305.31;4925479;29;20054;-64
2023/03/30 09:50:48;;;;;;;13.00;6.53;;;;;;;28.26;39.96;98290.44;4945233;28;20365;-65
2023/03/30 09:53:25;;;;;;;14.15;6.97;;;;;;;28.35;40.58;98291.28;4944675;28;20814;-65
2023/03/30 09:56:09;;;;;;;14.88;7.53;;;;;;;28.27;40.32;98278.44;4914291;29;20035;-66
2023/03/30 09:58:40;;;;;;;10.43;6.65;;;;;;;28.42;40.85;98277.16;4931883;29;20425;-64
2023/03/30 10:01:17;;;;;;;11.60;6.30;;;;;;;28.42;40.10;98277.97;4932110;29;20047;-63
2023/03/30 10:04:09;;;;;;;10.98;6.47;;;;;;;28.28;39.64;98269.13;4913890;29;20058;-65
2023/03/30 10:06:47;;;;;;;11.40;6.95;;;;;;;28.09;39.14;98263.16;4926466;29;20047;-64
2023/03/30 10:09:23;;;;;;;10.18;5.82;;;;;;;28.12;40.97;98255.19;4942230;29;20070;-66
2023/03/30 10:11:55;;;;;;;14.15;5.90;;;;;;;28.13;40.75;98256.78;4926198;29;20379;-64
2023/03/30 10:14:34;;;;;;;13.95;6.95;;;;;;;27.96;40.52;98256.72;4940711;29;20059;-63
2023/03/30 10:17:05;;;;;;;11.25;6.72;;;;;;;27.96;40.62;98240.38;4942699;29;20047;-63
2023/03/30 10:19:41;;;;;;;12.73;6.32;;;;;;;27.84;40.39;98239.41;4948004;28;20055;-65
2023/03/30 10:22:21;;;;;;;17.30;7.13;;;;;;;27.95;40.53;98227.88;4944366;28;20043;-71
2023/03/30 10:24:56;;;;;;;18.80;6.57;;;;;;;28.13;40.39;98220.59;4946474;29;20047;-66
2023/03/30 10:27:32;;;;;;;14.25;6.72;;;;;;;28.22;39.49;98224.13;4902282;28;20102;-65
2023/03/30 10:30:17;;;;;;;9.68;6.60;;;;;;;28.24;40.39;98227.31;4944530;28;20894;-62
2023/03/30 10:32:48;;;;;;;11.52;6.80;;;;;;;28.24;41.75;98210.97;4929239;29;20663;-65
2023/03/30 10:35:23;;;;;;;11.43;6.72;;;;;;;28.16;41.89;98211.75;4927689;28;20110;-62
2023/03/30 10:37:57;;;;;;;9.25;6.40;;;;;;;28.18;41.52;98206.81;4947521;28;20079;-61
2023/03/30 10:40:32;;;;;;;13.25;6.18;;;;;;;28.21;41.32;98208.91;4912441;29;20071;-63
2023/03/30 10:43:10;;;;;;;7.75;5.55;;;;;;;28.23;40.57;98195.78;4927446;29;20098;-63
2023/03/30 10:45:53;;;;;;;10.50;5.43;;;;;;;28.16;39.81;98187.25;4944412;29;20066;-61
2023/03/30 10:48:47;;;;;;;10.77;6.53;;;;;;;28.09;39.60;98195.09;4947632;29;20135;-62
2023/03/30 10:51:31;;;;;;;11.80;6.05;;;;;;;28.23;40.16;98184.88;4946678;29;20130;-61
2023/03/30 10:54:16;;;;;;;13.88;5.80;;;;;;;28.21;38.76;98183.56;4946085;29;20047;-60
2023/03/30 10:57:15;;;;;;;10.05;5.43;;;;;;;28.17;39.11;98182.63;4930762;29;20062;-61
2023/03/30 10:59:48;;;;;;;11.38;5.95;;;;;;;28.21;39.35;98178.94;4947876;29;20106;-63
2023/03/30 11:02:41;;;;;;;13.15;6.13;;;;;;;28.18;40.14;98181.50;4945423;29;20487;-62
2023/03/30 11:05:16;;;;;;;20.33;9.47;;;;;;;28.18;41.49;98192.41;4927292;28;20043;-61
2023/03/30 11:08:15;;;;;;;23.25;13.95;;;;;;;28.23;41.67;98189.50;4946368;28;20290;-61
2023/03/30 11:10:51;;;;;;;18.13;8.70;;;;;;;28.10;41.97;98192.03;4905756;29;20424;-61
2023/03/30 11:13:30;;;;;;;16.67;10.10;;;;;;;28.07;42.17;98197.31;4926471;29;20051;-62
2023/03/30 11:16:15;;;;;;;11.80;8.27;;;;;;;28.01;42.11;98190.44;4945147;29;20067;-61
2023/03/30 11:19:05;;;;;;;16.90;7.43;;;;;;;27.83;42.98;98178.72;4944669;29;20463;-61
2023/03/30 11:22:04;;;;;;;14.25;7.90;;;;;;;27.81;42.47;98175.50;4924323;29;20115;-62
2023/03/30 11:24:35;;;;;;;14.18;8.55;;;;;;;27.72;42.01;98176.59;4942090;29;20492;-62
2023/03/30 11:27:17;;;;;;;12.30;7.65;;;;;;;27.68;42.50;98170.97;4943381;29;20045;-62
2023/03/30 11:30:07;;;;;;;12.47;7.83;;;;;;;27.72;42.54;98169.22;4926800;29;20055;-63
2023/03/30 11:32:47;;;;;;;16.10;8.52;;;;;;;27.69;41.26;98172.59;4940652;29;20285;-63
2023/03/30 11:36:00;;;;;;;19.10;7.50;;;;;;;27.59;40.85;98170.97;4926909;29;20158;-64
2023/03/30 11:39:08;;;;;;;13.82;6.50;;;;;;;27.52;41.24;98159.75;4886812;29;20196;-63
2023/03/30 11:42:06;;;;;;;18.02;6.32;;;;;;;27.41;41.64;98157.59;4934011;28;20062;-61
2023/03/30 11:44:38;;;;;;;13.95;6.47;;;;;;;27.45;41.22;98161.28;4908352;29;20483;-61
2023/03/30 11:47:11;;;;;;;14.13;6.65;;;;;;;27.48;41.68;98156.06;4920873;29;20510;-61
2023/03/30 11:49:42;;;;;;;12.32;7.25;;;;;;;27.41;41.61;98158.41;4912312;29;20048;-62
2023/03/30 11:52:20;;;;;;;12.90;6.32;;;;;;;27.37;42.38;98143.81;4913145;29;20048;-61
2023/03/30 11:55:04;;;;;;;14.00;5.80;;;;;;;27.32;42.29;98143.97;4944295;28;20753;-61
2023/03/30 11:57:39;;;;;;;12.95;5.70;;;;;;;27.33;41.77;98137.41;4945139;28;20051;-62
2023/03/30 12:00:35;;;;;;;11.05;5.72;;;;;;;27.32;42.23;98133.09;4944914;28;20057;-61
2023/03/30 12:03:20;;;;;;;12.90;5.85;;;;;;;27.34;41.78;98136.31;4942717;28;20486;-61
2023/03/30 12:06:05;;;;;;;12.45;6.10;;;;;;;27.26;41.42;98134.34;4946607;28;20051;-61
2023/03/30 12:09:01;;;;;;;10.38;5.75;;;;;;;27.26;41.93;98145.25;4946708;29;20106;-61
2023/03/30 12:11:39;;;;;;;9.80;5.28;;;;;;;27.22;41.96;98144.25;4946844;29;20055;-61
2023/03/30 12:14:44;;;;;;;9.32;5.22;;;;;;;27.12;41.63;98147.25;4946649;28;20057;-60
2023/03/30 12:17:17;;;;;;;15.80;5.65;;;;;;;27.17;41.32;98142.47;4946513;28;20059;-61
2023/03/30 12:19:58;;;;;;;12.35;5.55;;;;;;;27.20;41.80;98144.56;4947067;29;20142;-62
2023/03/30 12:22:34;;;;;;;11.55;5.25;;;;;;;27.19;41.28;98144.88;4930667;28;20435;-61
2023/03/30 12:25:18;;;;;;;13.43;5.82;;;;;;;27.10;40.81;98136.69;4910680;28;20177;-61